Time;durP1;ratioP1;P1;durP2;ratioP2;P2;SDS_P1;SDS_P2;PMS_P1;PMS_P2;Temp;Humidity;BMP_temperature;BMP_pressure;BME280_temperature;BME280_humidity;BME280_pressure;Samples;Min_cycle;Max_cycle;Signal;HPM_P1;HPM_P2
2022/03/30 00:00:56;;;;;;;14.35;3.52;;;15.10;92.40;;;;;;1821183;78;21147;-83
2022/03/30 00:03:48;;;;;;;11.73;3.70;;;15.00;92.50;;;;;;1821554;78;21201;-84
2022/03/30 00:06:40;;;;;;;11.90;3.45;;;15.00;92.70;;;;;;1819043;78;21157;-84
2022/03/30 00:09:33;;;;;;;17.32;3.87;;;14.90;92.60;;;;;;1797274;79;21061;-84
2022/03/30 00:12:25;;;;;;;10.10;3.70;;;14.80;93.10;;;;;;1815732;79;21242;-84
2022/03/30 00:15:17;;;;;;;9.73;3.30;;;14.80;93.30;;;;;;1806049;79;21176;-84
2022/03/30 00:18:09;;;;;;;7.67;3.25;;;14.80;93.40;;;;;;1817093;79;21643;-84
2022/03/30 00:21:00;;;;;;;11.83;3.75;;;14.90;93.50;;;;;;1816182;78;21682;-84
2022/03/30 00:23:53;;;;;;;12.88;2.80;;;14.90;93.90;;;;;;1819742;78;21654;-84
2022/03/30 00:26:45;;;;;;;13.43;3.55;;;14.80;93.60;;;;;;1820395;78;21140;-85
2022/03/30 00:29:36;;;;;;;11.45;3.67;;;14.60;94.60;;;;;;1818688;78;21231;-84
2022/03/30 00:32:28;;;;;;;19.82;5.00;;;14.50;95.90;;;;;;1817342;78;21160;-85
2022/03/30 00:35:19;;;;;;;14.78;4.72;;;14.70;97.60;;;;;;1817307;79;21592;-85
2022/03/30 00:38:11;;;;;;;10.70;3.75;;;14.70;97.40;;;;;;1821339;78;21585;-84
2022/03/30 00:41:02;;;;;;;15.18;4.00;;;14.70;98.10;;;;;;1805760;79;21153;-85
2022/03/30 00:43:54;;;;;;;16.12;4.22;;;14.60;99.90;;;;;;1816328;79;21077;-84
2022/03/30 00:46:46;;;;;;;11.10;3.72;;;14.60;99.90;;;;;;1817228;78;21080;-86
2022/03/30 00:49:38;;;;;;;11.48;3.92;;;14.60;99.90;;;;;;1819931;78;21103;-84
2022/03/30 00:52:29;;;;;;;16.87;4.40;;;14.60;99.90;;;;;;1798056;80;21128;-85
2022/03/30 00:55:21;;;;;;;12.03;3.50;;;14.50;99.90;;;;;;1803274;79;21081;-84
2022/03/30 00:58:12;;;;;;;12.93;3.50;;;14.30;99.90;;;;;;1783921;80;21140;-84
2022/03/30 01:01:06;;;;;;;14.38;4.40;;;14.20;99.90;;;;;;1821102;78;21081;-84
2022/03/30 01:03:58;;;;;;;10.50;3.80;;;14.20;99.90;;;;;;1804321;79;21113;-84
2022/03/30 01:06:50;;;;;;;11.33;4.20;;;14.20;99.90;;;;;;1814919;79;21195;-84
2022/03/30 01:09:42;;;;;;;14.70;4.58;;;14.00;99.90;;;;;;1817392;78;21187;-84
2022/03/30 01:12:38;;;;;;;11.53;4.00;;;14.00;99.90;;;;;;1817725;78;21118;-84
2022/03/30 01:15:29;;;;;;;13.70;4.28;;;13.90;99.90;;;;;;1819918;78;21081;-84
2022/03/30 01:18:21;;;;;;;10.45;4.58;;;13.70;99.90;;;;;;1804933;79;21228;-84
2022/03/30 01:21:13;;;;;;;18.02;4.20;;;13.50;99.90;;;;;;1812433;79;21668;-85
2022/03/30 01:24:05;;;;;;;12.70;4.40;;;13.50;99.90;;;;;;1803645;79;21084;-86
2022/03/30 01:26:57;;;;;;;15.58;4.37;;;13.50;99.90;;;;;;1817731;79;21576;-84
2022/03/30 01:33:02;;;;;;;13.03;4.40;;;13.20;99.90;;;;;;1797893;80;21136;-85
2022/03/30 01:35:54;;;;;;;14.00;5.00;;;13.10;99.90;;;;;;1816259;79;21121;-85
2022/03/30 01:38:46;;;;;;;13.28;4.35;;;12.90;99.90;;;;;;1823952;78;21114;-85
2022/03/30 01:41:38;;;;;;;15.25;4.45;;;12.80;99.90;;;;;;1819531;78;21092;-85
2022/03/30 01:44:29;;;;;;;13.28;4.97;;;12.70;99.90;;;;;;1820469;78;21221;-85
2022/03/30 01:47:21;;;;;;;14.07;5.17;;;12.70;99.90;;;;;;1815037;78;21133;-85
2022/03/30 01:50:13;;;;;;;14.75;4.45;;;12.50;99.90;;;;;;1817667;78;21143;-85
2022/03/30 01:53:04;;;;;;;15.60;4.20;;;12.40;99.90;;;;;;1818958;78;21559;-85
2022/03/30 01:55:56;;;;;;;12.10;4.50;;;12.40;99.90;;;;;;1821956;78;21144;-84
2022/03/30 01:58:47;;;;;;;11.53;4.80;;;12.30;99.90;;;;;;1817184;79;21073;-84
2022/03/30 02:01:39;;;;;;;14.28;4.58;;;12.20;99.90;;;;;;1817665;78;21164;-84
2022/03/30 02:04:31;;;;;;;15.75;4.40;;;11.90;99.90;;;;;;1818448;78;21238;-84
2022/03/30 02:07:23;;;;;;;11.20;4.47;;;11.80;99.90;;;;;;1817065;79;21152;-85
2022/03/30 02:10:14;;;;;;;13.80;4.28;;;11.70;99.90;;;;;;1805957;79;21148;-84
2022/03/30 02:13:06;;;;;;;12.07;4.53;;;11.60;99.90;;;;;;1816857;78;21670;-84
2022/03/30 02:15:58;;;;;;;9.53;3.80;;;11.50;99.90;;;;;;1817926;78;21090;-84
2022/03/30 02:18:49;;;;;;;10.32;4.37;;;11.40;99.90;;;;;;1817040;79;21144;-84
2022/03/30 02:21:41;;;;;;;14.43;4.47;;;11.40;99.90;;;;;;1816783;79;21206;-84
2022/03/30 02:24:35;;;;;;;10.03;4.30;;;11.30;99.90;;;;;;1818240;78;21123;-85
2022/03/30 02:27:27;;;;;;;10.72;4.58;;;11.30;99.90;;;;;;1813649;78;21121;-85
2022/03/30 02:30:18;;;;;;;12.37;5.10;;;11.30;99.90;;;;;;1820947;78;21175;-84
2022/03/30 02:33:10;;;;;;;14.30;4.03;;;11.10;99.90;;;;;;1818798;79;21158;-84
2022/03/30 02:36:02;;;;;;;11.40;4.55;;;11.00;99.90;;;;;;1815840;79;21197;-84
2022/03/30 02:38:53;;;;;;;12.85;4.42;;;10.90;99.90;;;;;;1804404;79;21122;-84
2022/03/30 02:41:45;;;;;;;11.15;4.40;;;10.90;99.90;;;;;;1801050;79;21084;-82
2022/03/30 02:44:39;;;;;;;18.52;5.10;;;10.80;99.90;;;;;;1760291;81;21128;-84
2022/03/30 02:50:41;;;;;;;11.85;4.62;;;10.70;99.90;;;;;;1784102;80;21188;-84
2022/03/30 02:53:34;;;;;;;13.62;4.28;;;10.60;99.90;;;;;;1822335;78;21572;-84
2022/03/30 02:56:25;;;;;;;12.98;4.75;;;10.70;99.90;;;;;;1817261;79;21529;-84
2022/03/30 02:59:17;;;;;;;11.00;4.20;;;10.60;99.90;;;;;;1816857;79;21148;-84
2022/03/30 03:02:09;;;;;;;15.43;4.50;;;10.60;99.90;;;;;;1805026;79;21139;-84
2022/03/30 03:05:01;;;;;;;18.23;5.15;;;10.60;99.90;;;;;;1817834;78;21077;-84
2022/03/30 03:07:52;;;;;;;11.78;4.37;;;10.60;99.90;;;;;;1818889;78;21161;-84
2022/03/30 03:10:46;;;;;;;13.00;5.03;;;10.60;99.90;;;;;;1803654;79;21086;-84
2022/03/30 03:13:38;;;;;;;12.35;4.97;;;10.60;99.90;;;;;;1782422;80;21143;-84
2022/03/30 03:16:29;;;;;;;19.05;5.22;;;10.70;99.90;;;;;;1756694;81;21302;-84
2022/03/30 03:19:21;;;;;;;10.18;4.67;;;10.70;99.90;;;;;;1807723;78;21109;-83
2022/03/30 03:22:13;;;;;;;11.45;4.75;;;10.60;99.90;;;;;;1816131;79;21089;-86
2022/03/30 03:25:23;;;;;;;11.12;4.33;;;10.70;99.90;;;;;;1816711;79;21221;-84
2022/03/30 03:28:21;;;;;;;13.60;4.97;;;10.60;99.90;;;;;;1779668;80;21081;-84
2022/03/30 03:31:13;;;;;;;10.78;4.70;;;10.60;99.90;;;;;;1803811;79;21117;-84
2022/03/30 03:34:04;;;;;;;12.37;4.62;;;10.60;99.90;;;;;;1742962;82;21130;-85
2022/03/30 03:36:56;;;;;;;16.95;5.78;;;10.60;99.90;;;;;;1814053;79;21078;-84
2022/03/30 03:39:47;;;;;;;12.07;5.22;;;10.60;99.90;;;;;;1769808;80;21102;-83
2022/03/30 03:42:39;;;;;;;8.18;4.75;;;10.50;99.90;;;;;;1820680;79;21116;-84
2022/03/30 03:45:32;;;;;;;9.93;4.60;;;10.50;99.90;;;;;;1814706;79;21081;-84
2022/03/30 03:48:23;;;;;;;10.53;5.40;;;10.50;99.90;;;;;;1810167;78;21080;-84
2022/03/30 03:51:15;;;;;;;12.25;5.45;;;10.50;99.90;;;;;;1820095;78;21117;-84
2022/03/30 03:54:07;;;;;;;10.43;5.33;;;10.40;99.90;;;;;;1805990;79;21545;-84
2022/03/30 03:56:59;;;;;;;12.28;5.80;;;10.40;99.90;;;;;;1818305;78;21764;-84
2022/03/30 03:59:51;;;;;;;10.32;5.50;;;10.40;99.90;;;;;;1805086;78;21155;-84
2022/03/30 04:02:44;;;;;;;12.85;6.65;;;10.30;99.90;;;;;;1809386;79;21120;-84
2022/03/30 04:05:36;;;;;;;11.45;5.37;;;10.30;99.90;;;;;;1783218;79;21585;-84
2022/03/30 04:08:54;;;;;;;12.03;5.33;;;10.30;99.90;;;;;;1820673;78;21132;-84
2022/03/30 04:11:49;;;;;;;10.90;5.78;;;10.20;99.90;;;;;;1730351;82;21153;-84
2022/03/30 04:14:40;;;;;;;10.88;5.45;;;10.20;99.90;;;;;;1742515;82;21199;-83
2022/03/30 04:17:34;;;;;;;9.73;5.65;;;10.20;99.90;;;;;;1806548;78;21160;-84
2022/03/30 04:20:26;;;;;;;9.68;5.37;;;10.10;99.90;;;;;;1815241;79;21203;-83
2022/03/30 04:23:17;;;;;;;11.22;5.75;;;10.20;99.90;;;;;;1816818;79;21069;-83
2022/03/30 04:26:11;;;;;;;10.82;4.87;;;10.20;99.90;;;;;;1822515;78;21526;-83
2022/03/30 04:29:02;;;;;;;10.88;5.53;;;10.20;99.90;;;;;;1819909;79;21189;-85
2022/03/30 04:31:54;;;;;;;11.00;5.50;;;10.20;99.90;;;;;;1820798;77;21248;-84
2022/03/30 04:34:45;;;;;;;13.72;5.58;;;10.20;99.90;;;;;;1823237;78;21121;-84
2022/03/30 04:37:38;;;;;;;12.43;5.60;;;10.20;99.90;;;;;;1803870;78;21533;-83
2022/03/30 04:40:42;;;;;;;11.88;5.53;;;10.20;99.90;;;;;;1803458;79;21077;-83
2022/03/30 04:43:40;;;;;;;9.73;5.80;;;10.10;99.90;;;;;;1815689;79;21611;-84
2022/03/30 04:46:31;;;;;;;10.65;5.87;;;10.10;99.90;;;;;;1818924;78;21211;-84
2022/03/30 04:49:22;;;;;;;11.88;5.62;;;10.20;99.90;;;;;;1808367;79;21265;-84
2022/03/30 04:52:14;;;;;;;14.35;6.03;;;10.20;99.90;;;;;;1816329;79;21165;-85
2022/03/30 04:55:08;;;;;;;12.98;5.92;;;10.20;99.90;;;;;;1819990;79;21186;-84
2022/03/30 04:57:59;;;;;;;10.45;5.45;;;10.20;99.90;;;;;;1818030;79;21569;-84
2022/03/30 05:00:51;;;;;;;12.30;5.33;;;10.20;99.90;;;;;;1808561;79;21077;-84
2022/03/30 05:03:43;;;;;;;11.95;5.83;;;10.20;99.90;;;;;;1805493;79;21137;-84
2022/03/30 05:06:35;;;;;;;12.70;5.72;;;10.20;99.90;;;;;;1816243;78;21156;-84
2022/03/30 05:09:26;;;;;;;14.60;6.60;;;10.30;99.90;;;;;;1816888;78;21090;-84
2022/03/30 05:15:07;;;;;;;8.98;5.40;;;10.20;99.90;;;;;;1949228;72;22098;-85
2022/03/30 05:18:17;;;;;;;10.58;5.75;;;10.20;99.90;;;;;;1917202;73;21535;-85
2022/03/30 05:21:09;;;;;;;10.75;5.53;;;10.30;99.90;;;;;;1917123;75;21098;-85
2022/03/30 05:24:00;;;;;;;13.08;5.53;;;10.40;99.90;;;;;;1917489;75;21195;-82
2022/03/30 05:26:53;;;;;;;11.20;5.90;;;10.50;99.90;;;;;;1917129;73;22154;-82
2022/03/30 05:29:44;;;;;;;16.67;6.10;;;10.50;99.90;;;;;;1931492;73;21059;-82
2022/03/30 05:32:36;;;;;;;12.98;6.33;;;10.50;99.90;;;;;;1920057;73;21059;-82
2022/03/30 05:35:28;;;;;;;12.58;6.22;;;10.50;99.90;;;;;;1920025;73;21051;-84
2022/03/30 05:38:20;;;;;;;16.00;6.92;;;10.40;99.90;;;;;;1931556;73;21133;-82
2022/03/30 05:41:11;;;;;;;15.78;6.62;;;10.30;99.90;;;;;;1917531;75;21104;-82
2022/03/30 05:44:03;;;;;;;11.70;5.90;;;10.30;99.90;;;;;;1928923;73;21097;-83
2022/03/30 05:46:55;;;;;;;11.78;6.05;;;10.40;99.90;;;;;;1925233;73;21212;-83
2022/03/30 05:49:46;;;;;;;15.38;5.65;;;10.30;99.90;;;;;;1916853;75;21191;-83
2022/03/30 05:52:38;;;;;;;16.30;5.58;;;10.20;99.90;;;;;;1932150;73;21139;-83
2022/03/30 05:55:31;;;;;;;11.33;6.17;;;10.20;99.90;;;;;;1917242;73;21085;-83
2022/03/30 05:58:23;;;;;;;19.27;6.78;;;10.30;99.90;;;;;;1917406;75;21092;-83
2022/03/30 06:01:15;;;;;;;11.70;5.80;;;10.20;99.90;;;;;;1888942;75;21160;-82
2022/03/30 06:04:07;;;;;;;12.58;5.55;;;10.20;99.90;;;;;;1926994;73;21043;-82
2022/03/30 06:06:59;;;;;;;12.00;5.92;;;10.20;99.90;;;;;;1925712;74;21161;-82
2022/03/30 06:09:50;;;;;;;12.78;5.40;;;10.30;99.90;;;;;;1917213;75;21128;-84
2022/03/30 06:12:41;;;;;;;15.32;5.67;;;10.20;99.90;;;;;;1880325;76;21110;-83
2022/03/30 06:15:34;;;;;;;12.13;6.12;;;10.20;99.90;;;;;;1935983;73;21059;-83
2022/03/30 06:18:26;;;;;;;13.28;6.58;;;10.30;99.90;;;;;;1928005;73;21106;-83
2022/03/30 06:21:17;;;;;;;13.38;6.22;;;10.30;99.90;;;;;;1925621;73;21058;-83
2022/03/30 06:24:11;;;;;;;11.57;6.08;;;10.30;99.90;;;;;;1925723;73;21172;-82
2022/03/30 06:27:03;;;;;;;15.03;6.30;;;10.30;99.90;;;;;;1916798;75;21110;-82
2022/03/30 06:29:55;;;;;;;12.53;5.87;;;10.30;99.90;;;;;;1922757;73;21100;-82
2022/03/30 06:32:49;;;;;;;11.22;5.80;;;10.30;99.90;;;;;;1916896;75;21131;-84
2022/03/30 06:35:40;;;;;;;12.58;6.15;;;10.30;99.90;;;;;;1916814;75;21099;-83
2022/03/30 06:38:31;;;;;;;12.82;5.50;;;10.20;99.90;;;;;;1916928;75;21139;-83
2022/03/30 06:41:24;;;;;;;12.13;5.83;;;10.30;99.90;;;;;;1934196;73;21268;-86
2022/03/30 06:44:16;;;;;;;12.82;6.08;;;10.30;99.90;;;;;;1928566;73;21135;-81
2022/03/30 06:47:09;;;;;;;10.95;5.58;;;10.40;99.90;;;;;;1919768;73;21529;-84
2022/03/30 06:50:00;;;;;;;9.03;5.15;;;10.40;99.90;;;;;;1881332;75;21059;-82
2022/03/30 06:52:52;;;;;;;10.48;6.03;;;10.40;99.90;;;;;;1931241;73;21643;-82
2022/03/30 06:55:43;;;;;;;12.60;6.00;;;10.50;99.90;;;;;;1916751;75;21050;-83
2022/03/30 06:58:35;;;;;;;16.00;5.85;;;10.50;99.90;;;;;;1879878;76;21135;-84
2022/03/30 07:01:27;;;;;;;14.33;6.12;;;10.50;99.90;;;;;;1916742;75;21103;-83
2022/03/30 07:04:18;;;;;;;12.63;6.10;;;10.60;99.90;;;;;;1916675;75;21644;-83
2022/03/30 07:10:21;;;;;;;10.65;5.40;;;10.70;99.90;;;;;;1916794;75;21117;-82
2022/03/30 07:13:12;;;;;;;14.47;6.08;;;10.70;99.90;;;;;;1925680;73;21119;-82
2022/03/30 07:16:04;;;;;;;9.38;4.90;;;10.80;99.90;;;;;;1933996;73;21163;-82
2022/03/30 07:18:56;;;;;;;15.28;6.33;;;10.80;99.90;;;;;;1939319;73;21191;-83
2022/03/30 07:21:48;;;;;;;15.15;5.80;;;10.90;99.90;;;;;;1926400;74;21139;-83
2022/03/30 07:24:40;;;;;;;9.65;5.33;;;10.80;99.90;;;;;;1879649;76;21059;-83
2022/03/30 07:27:31;;;;;;;12.88;6.17;;;10.90;99.90;;;;;;1919276;74;21679;-82
2022/03/30 07:30:24;;;;;;;10.98;4.53;;;10.90;99.90;;;;;;1879699;76;21391;-82
2022/03/30 07:33:18;;;;;;;11.75;5.22;;;11.00;99.90;;;;;;1916744;75;21597;-84
2022/03/30 07:36:09;;;;;;;13.53;5.78;;;11.10;99.90;;;;;;1929460;73;21063;-82
2022/03/30 07:39:01;;;;;;;11.45;5.72;;;11.20;99.90;;;;;;1883725;75;21072;-82
2022/03/30 07:41:53;;;;;;;10.82;4.62;;;11.30;99.90;;;;;;1916598;73;21158;-82
2022/03/30 07:44:45;;;;;;;14.25;4.55;;;11.30;99.90;;;;;;1916719;75;21083;-82
2022/03/30 07:47:37;;;;;;;12.00;5.70;;;11.40;99.90;;;;;;1916986;75;21144;-82
2022/03/30 07:50:29;;;;;;;12.75;5.58;;;11.40;99.90;;;;;;1916824;75;21101;-82
2022/03/30 07:53:21;;;;;;;14.35;5.30;;;11.50;99.90;;;;;;1917032;75;21095;-84
2022/03/30 07:56:13;;;;;;;11.93;5.40;;;11.60;99.90;;;;;;1937738;73;21171;-83
2022/03/30 07:59:05;;;;;;;14.58;5.60;;;11.60;99.90;;;;;;1917140;75;21091;-83
2022/03/30 08:01:58;;;;;;;11.08;4.90;;;11.50;99.90;;;;;;1916965;75;21107;-83
2022/03/30 08:04:50;;;;;;;12.93;5.90;;;11.50;99.90;;;;;;1916834;75;21161;-82
2022/03/30 08:07:44;;;;;;;12.85;5.03;;;11.60;99.90;;;;;;1880226;75;21491;-82
2022/03/30 08:10:37;;;;;;;8.15;5.00;;;11.70;99.90;;;;;;1932719;73;21109;-82
2022/03/30 08:13:29;;;;;;;15.08;5.90;;;11.90;99.90;;;;;;1929952;73;21098;-82
2022/03/30 08:16:21;;;;;;;12.70;5.95;;;12.00;99.90;;;;;;1878822;75;21090;-82
2022/03/30 08:19:14;;;;;;;9.68;5.80;;;12.30;99.90;;;;;;1878170;76;21048;-82
2022/03/30 08:25:16;;;;;;;15.75;7.90;;;12.40;99.90;;;;;;1874666;76;21117;-83
2022/03/30 08:28:13;;;;;;;10.70;7.75;;;12.20;99.90;;;;;;1867157;76;21124;-83
2022/03/30 08:31:09;;;;;;;16.65;8.65;;;12.30;99.90;;;;;;1913842;74;21092;-82
2022/03/30 08:34:00;;;;;;;13.43;7.80;;;12.50;99.90;;;;;;1910595;74;21224;-82
2022/03/30 08:36:52;;;;;;;11.55;7.80;;;12.70;99.90;;;;;;1904566;75;21114;-83
2022/03/30 08:39:44;;;;;;;12.78;8.15;;;12.80;99.90;;;;;;1904719;75;21059;-82
2022/03/30 08:42:36;;;;;;;13.28;7.53;;;13.10;99.90;;;;;;1904468;75;21102;-84
2022/03/30 08:45:28;;;;;;;13.50;7.95;;;13.40;99.90;;;;;;1904447;75;21065;-83
2022/03/30 08:48:20;;;;;;;15.45;9.83;;;13.70;99.90;;;;;;1904257;75;21510;-83
2022/03/30 08:51:13;;;;;;;17.35;8.93;;;13.60;99.90;;;;;;1867669;77;21170;-83
2022/03/30 08:54:08;;;;;;;12.82;8.78;;;13.90;99.90;;;;;;1849402;77;21084;-83
2022/03/30 08:57:01;;;;;;;15.15;8.03;;;13.80;99.90;;;;;;1863341;77;21180;-83
2022/03/30 09:00:02;;;;;;;13.53;7.83;;;14.10;99.90;;;;;;1872353;75;21142;-83
2022/03/30 09:03:00;;;;;;;11.63;7.60;;;14.40;99.90;;;;;;1886705;75;21203;-82
2022/03/30 09:05:50;;;;;;;15.43;6.75;;;14.50;99.90;;;;;;1914663;74;21198;-82
2022/03/30 09:08:44;;;;;;;16.32;6.90;;;14.60;99.90;;;;;;1917730;75;21149;-81
2022/03/30 09:11:53;;;;;;;13.80;6.37;;;14.60;99.90;;;;;;1904510;75;21044;-81
2022/03/30 09:14:42;;;;;;;14.03;7.12;;;14.60;99.90;;;;;;1904551;75;21087;-81
2022/03/30 09:17:40;;;;;;;14.78;6.53;;;14.80;99.90;;;;;;1914276;74;21164;-82
2022/03/30 09:20:32;;;;;;;14.30;6.87;;;15.10;99.90;;;;;;1911284;74;21090;-82
2022/03/30 09:23:27;;;;;;;13.83;7.42;;;15.40;99.90;;;;;;1913612;74;21110;-82
2022/03/30 09:26:20;;;;;;;12.35;7.67;;;15.80;99.90;;;;;;1910447;74;21129;-82
2022/03/30 09:29:15;;;;;;;11.63;5.12;;;16.10;99.90;;;;;;1909993;74;21183;-82
2022/03/30 09:32:09;;;;;;;11.10;5.72;;;16.00;99.90;;;;;;1910413;74;21157;-82
2022/03/30 09:35:01;;;;;;;9.13;4.12;;;15.60;99.90;;;;;;1916847;74;21170;-82
2022/03/30 09:40:51;;;;;;;10.45;4.12;;;15.80;99.90;;;;;;1966383;72;22169;-83
2022/03/30 09:44:05;;;;;;;11.08;4.70;;;15.70;99.90;;;;;;1917429;75;21642;-82
2022/03/30 09:47:03;;;;;;;8.28;4.35;;;15.70;99.90;;;;;;1940551;73;21130;-82
2022/03/30 09:49:55;;;;;;;9.93;4.17;;;15.60;99.90;;;;;;1917413;75;21206;-82
2022/03/30 09:52:47;;;;;;;9.53;3.83;;;15.60;99.90;;;;;;1934922;73;21161;-82
2022/03/30 09:55:40;;;;;;;10.43;3.95;;;15.80;99.90;;;;;;1917635;75;21060;-81
2022/03/30 09:58:35;;;;;;;13.18;5.60;;;15.50;99.90;;;;;;1917645;75;21094;-81
2022/03/30 10:01:29;;;;;;;9.93;4.80;;;15.30;99.90;;;;;;1917632;75;21505;-82
2022/03/30 10:04:22;;;;;;;10.20;5.37;;;15.30;99.90;;;;;;1938766;73;21093;-82
2022/03/30 10:07:15;;;;;;;8.53;3.62;;;15.10;99.90;;;;;;1933061;73;21059;-82
2022/03/30 10:10:09;;;;;;;6.62;3.10;;;14.90;99.90;;;;;;1918107;73;21067;-82
2022/03/30 10:13:01;;;;;;;8.25;3.58;;;15.00;99.90;;;;;;1917509;75;21039;-82
2022/03/30 10:15:54;;;;;;;6.85;3.35;;;14.90;99.90;;;;;;1941032;73;21088;-82
2022/03/30 10:18:47;;;;;;;6.58;3.40;;;14.60;99.90;;;;;;1932824;73;21197;-82
2022/03/30 10:21:46;;;;;;;6.10;2.87;;;14.80;99.90;;;;;;1930758;73;21059;-82
2022/03/30 10:24:41;;;;;;;;;;;14.70;99.90;;;;;;1921579;73;21091;-83
2022/03/30 10:27:39;;;;;;;13.32;5.97;;;14.50;99.90;;;;;;1922437;73;20159;-82
2022/03/30 10:30:32;;;;;;;14.20;6.58;;;14.20;99.90;;;;;;1927820;73;21210;-82
2022/03/30 10:33:36;;;;;;;10.60;6.30;;;14.00;99.90;;;;;;1917841;75;21117;-84
2022/03/30 10:36:30;;;;;;;10.43;6.00;;;13.80;99.90;;;;;;1917369;75;21048;-82
2022/03/30 10:39:26;;;;;;;19.05;7.03;;;13.70;99.90;;;;;;1917787;74;21129;-84
2022/03/30 10:42:18;;;;;;;15.23;7.60;;;13.70;99.90;;;;;;1910556;74;21067;-82
2022/03/30 10:45:19;;;;;;;19.73;8.90;;;13.50;99.90;;;;;;1911096;74;21086;-82
2022/03/30 10:48:18;;;;;;;18.60;8.68;;;13.50;99.90;;;;;;1912341;74;21102;-83
2022/03/30 10:51:20;;;;;;;22.37;9.68;;;13.40;99.90;;;;;;1915200;74;21047;-83
2022/03/30 10:54:17;;;;;;;16.80;8.35;;;13.50;99.90;;;;;;1912787;74;21550;-82
2022/03/30 10:57:45;;;;;;;17.20;8.50;;;13.30;99.90;;;;;;1910302;74;21164;-76
2022/03/30 11:00:39;;;;;;;10.25;6.53;;;13.00;99.90;;;;;;1916544;74;21092;-76
2022/03/30 11:03:30;;;;;;;13.75;6.45;;;12.90;99.90;;;;;;1918431;74;21172;-78
2022/03/30 11:06:23;;;;;;;10.25;5.12;;;13.00;99.90;;;;;;1918704;74;21118;-76
2022/03/30 11:09:35;;;;;;;9.90;6.03;;;13.20;99.90;;;;;;1918664;74;21031;-78
2022/03/30 11:15:09;;;;;;;10.45;5.30;;;13.20;99.90;;;;;;1958100;72;22238;-78
2022/03/30 11:18:20;;;;;;;13.43;5.40;;;13.30;99.90;;;;;;1896775;75;21092;-77
2022/03/30 11:21:19;;;;;;;10.20;5.78;;;13.30;99.90;;;;;;1895542;75;21498;-76
2022/03/30 11:24:20;;;;;;;13.72;5.85;;;13.30;99.90;;;;;;1892203;75;21142;-76
2022/03/30 11:27:23;;;;;;;17.15;5.60;;;13.30;99.90;;;;;;1906704;75;21548;-75
2022/03/30 11:30:17;;;;;;;11.18;5.20;;;13.40;99.90;;;;;;1904010;75;21267;-76
2022/03/30 11:33:21;;;;;;;15.45;6.50;;;13.40;99.90;;;;;;1902293;75;21058;-76
2022/03/30 11:36:14;;;;;;;11.55;5.10;;;13.40;99.90;;;;;;1897156;75;21589;-76
2022/03/30 11:39:08;;;;;;;12.28;4.08;;;13.40;99.90;;;;;;1895377;75;21585;-76
2022/03/30 11:42:02;;;;;;;11.73;4.60;;;13.50;99.90;;;;;;1895383;75;21121;-76
2022/03/30 11:48:07;;;;;;;10.88;4.67;;;13.60;99.90;;;;;;1903446;75;21072;-76
2022/03/30 11:50:59;;;;;;;11.28;4.15;;;13.70;99.90;;;;;;1899303;75;21153;-76
2022/03/30 11:53:51;;;;;;;8.73;4.33;;;13.80;99.90;;;;;;1885759;75;21100;-76
2022/03/30 11:56:45;;;;;;;8.48;4.20;;;13.90;99.90;;;;;;1906610;75;21092;-76
2022/03/30 11:59:36;;;;;;;9.83;3.92;;;13.90;99.90;;;;;;1906198;75;21191;-76
2022/03/30 12:02:29;;;;;;;10.88;4.72;;;14.10;99.90;;;;;;1901006;75;21090;-76
2022/03/30 12:08:02;;;;;;;10.72;3.60;;;14.20;99.90;;;;;;1950618;72;22106;-75
2022/03/30 12:11:14;;;;;;;8.23;3.20;;;14.30;99.90;;;;;;1906639;75;21093;-76
2022/03/30 12:14:11;;;;;;;5.17;2.60;;;14.40;99.90;;;;;;1904340;75;21050;-76
2022/03/30 12:17:01;;;;;;;9.35;2.67;;;14.30;99.90;;;;;;1899517;75;21198;-76
2022/03/30 12:19:54;;;;;;;6.97;3.35;;;14.30;99.90;;;;;;1907227;75;21114;-76
2022/03/30 12:22:48;;;;;;;6.22;2.77;;;14.40;99.90;;;;;;1906987;75;21150;-77
2022/03/30 12:25:42;;;;;;;5.75;2.33;;;14.60;99.90;;;;;;1906896;75;21499;-77
2022/03/30 12:28:34;;;;;;;5.45;1.80;;;14.60;99.90;;;;;;1884537;75;21107;-76
2022/03/30 12:31:26;;;;;;;5.78;2.30;;;14.70;99.90;;;;;;1884478;76;21062;-76
2022/03/30 12:34:20;;;;;;;6.08;2.40;;;14.90;99.90;;;;;;1892715;75;21101;-76
2022/03/30 12:37:14;;;;;;;6.20;2.30;;;15.10;99.90;;;;;;1912525;75;21164;-76
2022/03/30 12:40:12;;;;;;;4.67;2.50;;;15.30;99.90;;;;;;1906518;75;21112;-78
2022/03/30 12:43:06;;;;;;;7.60;2.83;;;15.50;99.90;;;;;;1902990;75;21035;-76
2022/03/30 12:46:00;;;;;;;9.38;2.50;;;15.50;99.90;;;;;;1898897;75;21047;-76
2022/03/30 12:48:51;;;;;;;6.85;2.40;;;15.70;99.90;;;;;;1886055;75;21098;-77
2022/03/30 12:51:44;;;;;;;6.85;2.67;;;15.50;99.90;;;;;;1906853;75;21122;-77
2022/03/30 12:54:36;;;;;;;4.20;2.33;;;15.40;99.90;;;;;;1905940;75;21125;-76
2022/03/30 12:57:31;;;;;;;4.62;2.25;;;15.30;99.90;;;;;;1901800;75;21103;-76
2022/03/30 13:00:28;;;;;;;11.60;3.42;;;15.40;99.90;;;;;;1896174;75;21051;-76
2022/03/30 13:03:22;;;;;;;7.00;3.22;;;15.60;99.90;;;;;;1895163;75;21042;-76
2022/03/30 13:06:19;;;;;;;9.25;2.72;;;15.60;99.90;;;;;;1893151;75;21092;-76
2022/03/30 13:09:12;;;;;;;8.25;3.02;;;15.60;99.90;;;;;;1888463;75;21126;-76
2022/03/30 13:12:06;;;;;;;7.80;3.75;;;15.60;99.90;;;;;;1900079;75;21047;-77
2022/03/30 13:14:59;;;;;;;8.88;3.83;;;15.70;99.90;;;;;;1906974;75;21474;-76
2022/03/30 13:18:03;;;;;;;8.35;3.45;;;15.60;99.90;;;;;;1906722;75;21047;-76
2022/03/30 13:20:58;;;;;;;8.55;3.12;;;15.40;99.90;;;;;;1883899;75;21072;-78
2022/03/30 13:23:51;;;;;;;6.25;2.95;;;15.30;99.90;;;;;;1883980;76;21120;-77
2022/03/30 13:26:45;;;;;;;6.20;2.85;;;15.30;99.90;;;;;;1883743;75;21124;-76
2022/03/30 13:29:37;;;;;;;9.30;2.90;;;15.10;99.90;;;;;;1883938;75;21134;-76
2022/03/30 13:32:29;;;;;;;8.00;2.90;;;15.20;99.90;;;;;;1890899;75;21043;-76
2022/03/30 13:35:21;;;;;;;9.18;3.02;;;15.40;99.90;;;;;;1893805;75;21094;-76
2022/03/30 13:38:18;;;;;;;8.30;2.70;;;15.50;99.90;;;;;;1901964;75;21112;-75
2022/03/30 13:41:10;;;;;;;7.75;2.92;;;15.60;99.90;;;;;;1902651;75;21109;-76
2022/03/30 13:44:02;;;;;;;10.45;2.60;;;15.50;99.90;;;;;;1915119;75;21032;-76
2022/03/30 13:46:54;;;;;;;7.42;2.72;;;15.70;99.90;;;;;;1894651;75;21066;-76
2022/03/30 13:49:47;;;;;;;10.53;2.92;;;15.60;99.90;;;;;;1916881;75;21512;-76
2022/03/30 13:52:40;;;;;;;7.55;3.05;;;15.50;99.90;;;;;;1901640;75;21098;-77
2022/03/30 13:56:02;;;;;;;9.68;2.60;;;15.40;99.90;;;;;;1906005;75;21133;-76
2022/03/30 13:58:55;;;;;;;7.00;2.87;;;15.40;99.90;;;;;;1896044;75;21639;-76
2022/03/30 14:05:02;;;;;;;9.03;2.80;;;15.50;99.90;;;;;;1944015;72;22264;-76
2022/03/30 14:08:12;;;;;;;8.93;3.52;;;15.70;99.90;;;;;;1923779;73;21576;-76
2022/03/30 14:11:04;;;;;;;6.80;3.67;;;15.80;99.90;;;;;;1927598;73;21105;-78
2022/03/30 14:13:55;;;;;;;9.38;3.98;;;15.90;99.90;;;;;;1917652;75;21068;-78
2022/03/30 14:16:47;;;;;;;7.50;3.62;;;15.90;99.90;;;;;;1917550;75;21088;-76
2022/03/30 14:19:43;;;;;;;7.40;3.20;;;15.80;99.90;;;;;;1917551;75;21083;-77
2022/03/30 14:22:34;;;;;;;8.08;3.83;;;15.90;99.90;;;;;;1917439;75;21674;-76
2022/03/30 14:25:28;;;;;;;8.98;3.47;;;16.00;99.90;;;;;;1917568;75;21087;-77
2022/03/30 14:28:22;;;;;;;10.48;3.65;;;16.10;99.90;;;;;;1933242;73;21131;-76
2022/03/30 14:31:13;;;;;;;11.08;4.47;;;16.10;99.90;;;;;;1928741;73;21121;-77
2022/03/30 14:34:05;;;;;;;8.33;4.15;;;16.10;99.90;;;;;;1922803;73;21098;-77
2022/03/30 14:36:57;;;;;;;10.60;4.15;;;16.00;99.90;;;;;;1902211;75;21128;-78
2022/03/30 14:39:49;;;;;;;10.08;3.65;;;16.10;99.90;;;;;;1917695;75;21822;-77
2022/03/30 14:42:41;;;;;;;8.05;3.60;;;16.20;99.90;;;;;;1931279;73;21055;-76
2022/03/30 14:45:33;;;;;;;7.05;3.67;;;16.40;99.90;;;;;;1919922;73;21067;-76
2022/03/30 14:48:28;;;;;;;9.58;3.90;;;16.40;99.90;;;;;;1920687;73;21147;-77
2022/03/30 14:51:18;;;;;;;9.53;3.90;;;16.50;99.90;;;;;;1930194;73;21162;-76
2022/03/30 14:54:11;;;;;;;7.55;3.70;;;16.40;99.90;;;;;;1917684;74;21257;-77
2022/03/30 14:57:03;;;;;;;7.92;3.80;;;16.40;99.90;;;;;;1917542;75;21099;-77
2022/03/30 14:59:55;;;;;;;9.43;4.47;;;16.40;99.90;;;;;;1917582;75;21111;-77
2022/03/30 15:02:48;;;;;;;7.30;3.15;;;16.40;99.90;;;;;;1917692;75;21531;-77
2022/03/30 15:05:41;;;;;;;11.10;4.12;;;16.40;99.90;;;;;;1913443;74;21126;-77
2022/03/30 15:08:34;;;;;;;11.75;3.50;;;16.50;99.90;;;;;;1902831;74;21057;-76
2022/03/30 15:11:26;;;;;;;8.95;4.22;;;16.50;99.90;;;;;;1908616;74;21138;-76
2022/03/30 15:14:18;;;;;;;9.38;4.05;;;16.60;99.90;;;;;;1910565;74;21063;-77
2022/03/30 15:17:11;;;;;;;8.95;4.10;;;16.60;99.90;;;;;;1912421;74;21449;-76
2022/03/30 15:20:05;;;;;;;12.00;4.50;;;16.50;99.90;;;;;;1902422;75;21106;-76
2022/03/30 15:22:58;;;;;;;9.35;4.25;;;16.60;99.90;;;;;;1924808;74;21121;-76
2022/03/30 15:25:51;;;;;;;12.30;4.90;;;16.80;99.90;;;;;;1907408;74;21128;-76